sensor_id;sensor_type;location;lat;lon;timestamp;P1;durP1;ratioP1;P2;durP2;ratioP2
5823;SDS011;2938;52.254;12.988;2023-11-21T00:00:48;28.60;;;11.55;;
5823;SDS011;2938;52.254;12.988;2023-11-21T00:03:14;21.02;;;10.38;;
5823;SDS011;2938;52.254;12.988;2023-11-21T00:05:40;19.52;;;10.80;;
5823;SDS011;2938;52.254;12.988;2023-11-21T00:08:06;30.45;;;11.10;;
5823;SDS011;2938;52.254;12.988;2023-11-21T00:10:32;23.42;;;11.45;;
5823;SDS011;2938;52.254;12.988;2023-11-21T00:12:57;25.65;;;10.45;;
5823;SDS011;2938;52.254;12.988;2023-11-21T00:15:23;28.30;;;11.05;;
5823;SDS011;2938;52.254;12.988;2023-11-21T00:17:48;16.55;;;10.18;;
5823;SDS011;2938;52.254;12.988;2023-11-21T00:20:13;21.27;;;10.30;;
5823;SDS011;2938;52.254;12.988;2023-11-21T00:22:38;22.75;;;10.15;;
5823;SDS011;2938;52.254;12.988;2023-11-21T00:25:05;20.73;;;9.77;;
5823;SDS011;2938;52.254;12.988;2023-11-21T00:27:33;21.70;;;10.25;;
5823;SDS011;2938;52.254;12.988;2023-11-21T00:30:00;14.23;;;9.02;;
5823;SDS011;2938;52.254;12.988;2023-11-21T00:32:25;15.23;;;8.88;;
5823;SDS011;2938;52.254;12.988;2023-11-21T00:34:50;23.38;;;9.73;;
5823;SDS011;2938;52.254;12.988;2023-11-21T00:37:16;16.55;;;10.23;;
5823;SDS011;2938;52.254;12.988;2023-11-21T00:39:41;20.20;;;8.23;;
5823;SDS011;2938;52.254;12.988;2023-11-21T00:42:06;21.98;;;9.35;;
5823;SDS011;2938;52.254;12.988;2023-11-21T00:44:32;21.05;;;7.90;;
5823;SDS011;2938;52.254;12.988;2023-11-21T00:46:59;12.50;;;7.78;;
5823;SDS011;2938;52.254;12.988;2023-11-21T00:49:24;26.45;;;9.80;;
5823;SDS011;2938;52.254;12.988;2023-11-21T00:51:49;13.77;;;7.60;;
5823;SDS011;2938;52.254;12.988;2023-11-21T00:54:15;14.38;;;7.50;;
5823;SDS011;2938;52.254;12.988;2023-11-21T00:56:42;17.13;;;8.20;;
5823;SDS011;2938;52.254;12.988;2023-11-21T00:59:07;15.35;;;7.15;;
5823;SDS011;2938;52.254;12.988;2023-11-21T01:01:33;12.98;;;7.75;;
5823;SDS011;2938;52.254;12.988;2023-11-21T01:03:58;12.23;;;7.20;;
5823;SDS011;2938;52.254;12.988;2023-11-21T01:06:23;14.23;;;7.18;;
5823;SDS011;2938;52.254;12.988;2023-11-21T01:08:48;21.95;;;7.95;;
5823;SDS011;2938;52.254;12.988;2023-11-21T01:11:14;14.52;;;8.48;;
5823;SDS011;2938;52.254;12.988;2023-11-21T01:13:39;19.60;;;8.20;;
5823;SDS011;2938;52.254;12.988;2023-11-21T01:16:05;20.45;;;7.55;;
5823;SDS011;2938;52.254;12.988;2023-11-21T01:18:31;13.25;;;6.20;;
5823;SDS011;2938;52.254;12.988;2023-11-21T01:20:57;13.18;;;7.63;;
5823;SDS011;2938;52.254;12.988;2023-11-21T01:23:25;15.45;;;6.65;;
5823;SDS011;2938;52.254;12.988;2023-11-21T01:25:51;16.80;;;7.10;;
5823;SDS011;2938;52.254;12.988;2023-11-21T01:28:17;12.38;;;7.32;;
5823;SDS011;2938;52.254;12.988;2023-11-21T01:30:42;16.90;;;7.43;;
5823;SDS011;2938;52.254;12.988;2023-11-21T01:33:09;13.90;;;6.72;;
5823;SDS011;2938;52.254;12.988;2023-11-21T01:35:35;10.95;;;6.60;;
5823;SDS011;2938;52.254;12.988;2023-11-21T01:38:00;12.27;;;7.90;;
5823;SDS011;2938;52.254;12.988;2023-11-21T01:40:26;11.95;;;6.88;;
5823;SDS011;2938;52.254;12.988;2023-11-21T01:42:52;9.18;;;5.85;;
5823;SDS011;2938;52.254;12.988;2023-11-21T01:45:18;8.55;;;5.13;;
5823;SDS011;2938;52.254;12.988;2023-11-21T01:47:43;11.82;;;5.85;;
5823;SDS011;2938;52.254;12.988;2023-11-21T01:50:10;9.43;;;6.25;;
5823;SDS011;2938;52.254;12.988;2023-11-21T01:52:38;7.60;;;4.63;;
5823;SDS011;2938;52.254;12.988;2023-11-21T01:55:06;7.93;;;4.35;;
5823;SDS011;2938;52.254;12.988;2023-11-21T01:57:33;9.13;;;5.20;;
5823;SDS011;2938;52.254;12.988;2023-11-21T01:59:59;6.80;;;2.83;;
5823;SDS011;2938;52.254;12.988;2023-11-21T02:02:26;3.20;;;2.58;;
5823;SDS011;2938;52.254;12.988;2023-11-21T02:04:51;3.25;;;2.95;;
5823;SDS011;2938;52.254;12.988;2023-11-21T02:07:17;2.83;;;2.55;;
5823;SDS011;2938;52.254;12.988;2023-11-21T02:09:44;4.22;;;2.90;;
5823;SDS011;2938;52.254;12.988;2023-11-21T02:12:10;4.35;;;3.72;;
5823;SDS011;2938;52.254;12.988;2023-11-21T02:14:35;6.68;;;4.15;;
5823;SDS011;2938;52.254;12.988;2023-11-21T02:17:01;8.07;;;4.40;;
5823;SDS011;2938;52.254;12.988;2023-11-21T02:19:28;12.38;;;7.47;;
5823;SDS011;2938;52.254;12.988;2023-11-21T02:21:54;8.65;;;7.05;;
5823;SDS011;2938;52.254;12.988;2023-11-21T02:24:23;10.15;;;6.85;;
5823;SDS011;2938;52.254;12.988;2023-11-21T02:26:48;14.90;;;8.88;;
5823;SDS011;2938;52.254;12.988;2023-11-21T02:29:16;13.32;;;9.70;;
5823;SDS011;2938;52.254;12.988;2023-11-21T02:31:43;16.67;;;12.02;;
5823;SDS011;2938;52.254;12.988;2023-11-21T02:34:16;16.50;;;10.82;;
5823;SDS011;2938;52.254;12.988;2023-11-21T02:36:42;22.52;;;12.55;;
5823;SDS011;2938;52.254;12.988;2023-11-21T02:39:12;19.58;;;12.57;;
5823;SDS011;2938;52.254;12.988;2023-11-21T02:41:38;27.00;;;14.73;;
5823;SDS011;2938;52.254;12.988;2023-11-21T02:44:04;21.23;;;13.98;;
5823;SDS011;2938;52.254;12.988;2023-11-21T02:46:31;24.77;;;15.70;;
5823;SDS011;2938;52.254;12.988;2023-11-21T02:48:58;29.20;;;15.43;;
5823;SDS011;2938;52.254;12.988;2023-11-21T02:51:24;20.77;;;14.23;;
5823;SDS011;2938;52.254;12.988;2023-11-21T02:53:51;22.33;;;15.68;;
5823;SDS011;2938;52.254;12.988;2023-11-21T02:56:16;25.95;;;13.50;;
5823;SDS011;2938;52.254;12.988;2023-11-21T02:58:42;25.88;;;14.95;;
5823;SDS011;2938;52.254;12.988;2023-11-21T03:01:11;23.90;;;14.70;;
5823;SDS011;2938;52.254;12.988;2023-11-21T03:03:38;26.60;;;15.32;;
5823;SDS011;2938;52.254;12.988;2023-11-21T03:06:08;25.08;;;15.52;;
5823;SDS011;2938;52.254;12.988;2023-11-21T03:08:33;27.88;;;14.38;;
5823;SDS011;2938;52.254;12.988;2023-11-21T03:10:59;22.08;;;12.23;;
5823;SDS011;2938;52.254;12.988;2023-11-21T03:13:24;28.27;;;11.90;;
5823;SDS011;2938;52.254;12.988;2023-11-21T03:15:49;20.40;;;12.70;;
5823;SDS011;2938;52.254;12.988;2023-11-21T03:18:15;20.17;;;12.45;;
5823;SDS011;2938;52.254;12.988;2023-11-21T03:20:40;22.98;;;13.90;;
5823;SDS011;2938;52.254;12.988;2023-11-21T03:23:06;22.17;;;12.18;;
5823;SDS011;2938;52.254;12.988;2023-11-21T03:25:32;20.00;;;13.05;;
5823;SDS011;2938;52.254;12.988;2023-11-21T03:27:57;21.08;;;11.80;;
5823;SDS011;2938;52.254;12.988;2023-11-21T03:30:22;23.67;;;12.18;;
5823;SDS011;2938;52.254;12.988;2023-11-21T03:32:48;25.77;;;12.85;;
5823;SDS011;2938;52.254;12.988;2023-11-21T03:35:13;23.65;;;13.70;;
5823;SDS011;2938;52.254;12.988;2023-11-21T03:37:39;21.13;;;11.73;;
5823;SDS011;2938;52.254;12.988;2023-11-21T03:40:06;20.23;;;12.23;;
5823;SDS011;2938;52.254;12.988;2023-11-21T03:42:33;22.45;;;13.20;;
5823;SDS011;2938;52.254;12.988;2023-11-21T03:44:59;27.58;;;14.23;;
5823;SDS011;2938;52.254;12.988;2023-11-21T03:47:25;29.80;;;13.95;;
5823;SDS011;2938;52.254;12.988;2023-11-21T03:49:51;30.08;;;16.00;;
5823;SDS011;2938;52.254;12.988;2023-11-21T03:52:16;29.00;;;15.77;;
5823;SDS011;2938;52.254;12.988;2023-11-21T03:54:42;22.77;;;12.18;;
5823;SDS011;2938;52.254;12.988;2023-11-21T03:57:08;27.45;;;13.93;;
5823;SDS011;2938;52.254;12.988;2023-11-21T03:59:34;22.17;;;12.20;;
5823;SDS011;2938;52.254;12.988;2023-11-21T04:01:59;22.75;;;11.55;;
5823;SDS011;2938;52.254;12.988;2023-11-21T04:04:24;20.67;;;11.77;;
5823;SDS011;2938;52.254;12.988;2023-11-21T04:06:50;23.95;;;11.80;;
5823;SDS011;2938;52.254;12.988;2023-11-21T04:09:16;20.63;;;10.82;;
5823;SDS011;2938;52.254;12.988;2023-11-21T04:11:42;22.42;;;12.55;;
5823;SDS011;2938;52.254;12.988;2023-11-21T04:14:08;14.90;;;9.90;;
5823;SDS011;2938;52.254;12.988;2023-11-21T04:16:34;21.00;;;11.98;;
5823;SDS011;2938;52.254;12.988;2023-11-21T04:18:59;17.10;;;11.43;;
5823;SDS011;2938;52.254;12.988;2023-11-21T04:21:25;18.25;;;10.68;;
5823;SDS011;2938;52.254;12.988;2023-11-21T04:23:50;16.42;;;11.68;;
5823;SDS011;2938;52.254;12.988;2023-11-21T04:26:15;15.65;;;10.20;;
5823;SDS011;2938;52.254;12.988;2023-11-21T04:28:41;17.10;;;11.95;;
5823;SDS011;2938;52.254;12.988;2023-11-21T04:31:06;20.88;;;13.35;;
5823;SDS011;2938;52.254;12.988;2023-11-21T04:33:32;18.10;;;11.77;;
5823;SDS011;2938;52.254;12.988;2023-11-21T04:35:57;22.23;;;14.05;;
5823;SDS011;2938;52.254;12.988;2023-11-21T04:38:23;17.83;;;13.00;;
5823;SDS011;2938;52.254;12.988;2023-11-21T04:40:48;16.08;;;13.02;;
5823;SDS011;2938;52.254;12.988;2023-11-21T04:43:13;23.30;;;16.48;;
5823;SDS011;2938;52.254;12.988;2023-11-21T04:45:39;23.70;;;14.95;;
5823;SDS011;2938;52.254;12.988;2023-11-21T04:48:06;20.40;;;14.25;;
5823;SDS011;2938;52.254;12.988;2023-11-21T04:50:32;19.70;;;14.05;;
5823;SDS011;2938;52.254;12.988;2023-11-21T04:52:57;16.98;;;12.80;;
5823;SDS011;2938;52.254;12.988;2023-11-21T04:55:23;23.88;;;16.45;;
5823;SDS011;2938;52.254;12.988;2023-11-21T04:57:48;27.90;;;16.52;;
5823;SDS011;2938;52.254;12.988;2023-11-21T05:00:13;22.77;;;16.40;;
5823;SDS011;2938;52.254;12.988;2023-11-21T05:02:40;22.00;;;15.25;;
5823;SDS011;2938;52.254;12.988;2023-11-21T05:05:06;21.90;;;16.35;;
5823;SDS011;2938;52.254;12.988;2023-11-21T05:07:32;24.58;;;17.05;;
5823;SDS011;2938;52.254;12.988;2023-11-21T05:10:01;23.65;;;17.13;;
5823;SDS011;2938;52.254;12.988;2023-11-21T05:12:30;23.17;;;16.77;;
5823;SDS011;2938;52.254;12.988;2023-11-21T05:14:58;20.48;;;15.15;;
5823;SDS011;2938;52.254;12.988;2023-11-21T05:17:23;20.98;;;15.23;;
5823;SDS011;2938;52.254;12.988;2023-11-21T05:19:48;21.50;;;15.73;;
5823;SDS011;2938;52.254;12.988;2023-11-21T05:22:14;22.38;;;15.15;;
5823;SDS011;2938;52.254;12.988;2023-11-21T05:24:39;23.42;;;16.40;;
5823;SDS011;2938;52.254;12.988;2023-11-21T05:27:04;22.90;;;15.68;;
5823;SDS011;2938;52.254;12.988;2023-11-21T05:29:30;27.08;;;18.40;;
5823;SDS011;2938;52.254;12.988;2023-11-21T05:31:56;25.02;;;17.13;;
5823;SDS011;2938;52.254;12.988;2023-11-21T05:34:21;22.38;;;15.00;;
5823;SDS011;2938;52.254;12.988;2023-11-21T05:36:48;27.00;;;15.32;;
5823;SDS011;2938;52.254;12.988;2023-11-21T05:39:14;23.20;;;16.90;;
5823;SDS011;2938;52.254;12.988;2023-11-21T05:41:42;23.25;;;15.27;;
5823;SDS011;2938;52.254;12.988;2023-11-21T05:44:07;22.50;;;14.30;;
5823;SDS011;2938;52.254;12.988;2023-11-21T05:46:32;21.98;;;15.48;;
5823;SDS011;2938;52.254;12.988;2023-11-21T05:48:58;28.08;;;17.45;;
5823;SDS011;2938;52.254;12.988;2023-11-21T05:51:23;25.48;;;16.45;;
5823;SDS011;2938;52.254;12.988;2023-11-21T05:53:48;24.05;;;15.70;;
5823;SDS011;2938;52.254;12.988;2023-11-21T05:56:13;26.73;;;16.55;;
5823;SDS011;2938;52.254;12.988;2023-11-21T05:58:39;24.40;;;15.35;;
5823;SDS011;2938;52.254;12.988;2023-11-21T06:01:05;21.48;;;14.32;;
5823;SDS011;2938;52.254;12.988;2023-11-21T06:03:32;22.48;;;15.55;;
5823;SDS011;2938;52.254;12.988;2023-11-21T06:05:57;20.73;;;14.25;;
5823;SDS011;2938;52.254;12.988;2023-11-21T06:08:23;25.50;;;14.95;;
5823;SDS011;2938;52.254;12.988;2023-11-21T06:10:48;25.70;;;14.73;;
5823;SDS011;2938;52.254;12.988;2023-11-21T06:13:14;20.95;;;14.05;;
5823;SDS011;2938;52.254;12.988;2023-11-21T06:15:39;21.52;;;14.98;;
5823;SDS011;2938;52.254;12.988;2023-11-21T06:18:04;23.75;;;15.27;;
5823;SDS011;2938;52.254;12.988;2023-11-21T06:20:34;26.42;;;15.35;;
5823;SDS011;2938;52.254;12.988;2023-11-21T06:23:02;22.80;;;13.73;;
5823;SDS011;2938;52.254;12.988;2023-11-21T06:25:28;22.08;;;14.20;;
5823;SDS011;2938;52.254;12.988;2023-11-21T06:27:53;23.48;;;15.30;;
5823;SDS011;2938;52.254;12.988;2023-11-21T06:30:19;26.92;;;15.68;;
5823;SDS011;2938;52.254;12.988;2023-11-21T06:32:45;22.83;;;14.30;;
5823;SDS011;2938;52.254;12.988;2023-11-21T06:35:13;26.27;;;15.23;;
5823;SDS011;2938;52.254;12.988;2023-11-21T06:37:38;25.98;;;15.02;;
5823;SDS011;2938;52.254;12.988;2023-11-21T06:40:04;28.67;;;15.90;;
5823;SDS011;2938;52.254;12.988;2023-11-21T06:42:30;26.30;;;15.52;;
5823;SDS011;2938;52.254;12.988;2023-11-21T06:44:55;32.70;;;15.02;;
5823;SDS011;2938;52.254;12.988;2023-11-21T06:47:22;27.00;;;15.93;;
5823;SDS011;2938;52.254;12.988;2023-11-21T06:49:50;23.13;;;13.70;;
5823;SDS011;2938;52.254;12.988;2023-11-21T06:52:16;23.23;;;13.98;;
5823;SDS011;2938;52.254;12.988;2023-11-21T06:54:42;25.77;;;16.00;;
5823;SDS011;2938;52.254;12.988;2023-11-21T06:57:07;25.13;;;15.75;;
5823;SDS011;2938;52.254;12.988;2023-11-21T06:59:32;25.00;;;13.63;;
5823;SDS011;2938;52.254;12.988;2023-11-21T07:01:58;22.38;;;14.60;;
5823;SDS011;2938;52.254;12.988;2023-11-21T07:04:26;21.58;;;15.82;;
5823;SDS011;2938;52.254;12.988;2023-11-21T07:06:55;22.02;;;13.75;;
5823;SDS011;2938;52.254;12.988;2023-11-21T07:09:21;23.02;;;13.07;;
5823;SDS011;2938;52.254;12.988;2023-11-21T07:11:47;18.85;;;12.73;;
5823;SDS011;2938;52.254;12.988;2023-11-21T07:14:13;24.52;;;15.25;;
5823;SDS011;2938;52.254;12.988;2023-11-21T07:16:39;24.73;;;14.73;;
5823;SDS011;2938;52.254;12.988;2023-11-21T07:19:04;18.40;;;11.65;;
5823;SDS011;2938;52.254;12.988;2023-11-21T07:21:31;27.00;;;14.50;;
5823;SDS011;2938;52.254;12.988;2023-11-21T07:23:57;22.02;;;13.38;;
5823;SDS011;2938;52.254;12.988;2023-11-21T07:26:22;19.25;;;12.98;;
5823;SDS011;2938;52.254;12.988;2023-11-21T07:28:48;19.48;;;12.80;;
5823;SDS011;2938;52.254;12.988;2023-11-21T07:31:13;18.40;;;11.10;;
5823;SDS011;2938;52.254;12.988;2023-11-21T07:33:38;20.67;;;13.00;;
5823;SDS011;2938;52.254;12.988;2023-11-21T07:36:12;19.10;;;12.65;;
5823;SDS011;2938;52.254;12.988;2023-11-21T07:38:38;22.20;;;13.63;;
5823;SDS011;2938;52.254;12.988;2023-11-21T07:41:04;22.00;;;14.05;;
5823;SDS011;2938;52.254;12.988;2023-11-21T07:43:29;21.08;;;11.43;;
5823;SDS011;2938;52.254;12.988;2023-11-21T07:46:00;19.20;;;11.80;;
5823;SDS011;2938;52.254;12.988;2023-11-21T07:48:26;18.92;;;12.35;;
5823;SDS011;2938;52.254;12.988;2023-11-21T07:50:51;19.48;;;12.68;;
5823;SDS011;2938;52.254;12.988;2023-11-21T07:53:16;18.30;;;12.10;;
5823;SDS011;2938;52.254;12.988;2023-11-21T07:55:42;22.42;;;12.45;;
5823;SDS011;2938;52.254;12.988;2023-11-21T07:58:07;24.98;;;14.02;;
5823;SDS011;2938;52.254;12.988;2023-11-21T08:00:32;19.08;;;12.43;;
5823;SDS011;2938;52.254;12.988;2023-11-21T08:02:58;16.42;;;9.85;;
5823;SDS011;2938;52.254;12.988;2023-11-21T08:05:23;14.15;;;9.77;;
5823;SDS011;2938;52.254;12.988;2023-11-21T08:07:49;13.65;;;8.45;;
5823;SDS011;2938;52.254;12.988;2023-11-21T08:10:18;14.30;;;9.25;;
5823;SDS011;2938;52.254;12.988;2023-11-21T08:12:45;11.93;;;8.65;;
5823;SDS011;2938;52.254;12.988;2023-11-21T08:15:11;17.08;;;7.68;;
5823;SDS011;2938;52.254;12.988;2023-11-21T08:17:39;15.02;;;9.13;;
5823;SDS011;2938;52.254;12.988;2023-11-21T08:20:04;11.93;;;7.75;;
5823;SDS011;2938;52.254;12.988;2023-11-21T08:22:31;15.43;;;9.27;;
5823;SDS011;2938;52.254;12.988;2023-11-21T08:24:56;12.05;;;8.35;;
5823;SDS011;2938;52.254;12.988;2023-11-21T08:27:21;11.05;;;8.65;;
5823;SDS011;2938;52.254;12.988;2023-11-21T08:29:47;13.75;;;8.85;;
5823;SDS011;2938;52.254;12.988;2023-11-21T08:32:12;12.63;;;8.35;;
5823;SDS011;2938;52.254;12.988;2023-11-21T08:34:37;13.20;;;7.97;;
5823;SDS011;2938;52.254;12.988;2023-11-21T08:37:04;10.35;;;7.72;;
5823;SDS011;2938;52.254;12.988;2023-11-21T08:39:30;13.20;;;8.20;;
5823;SDS011;2938;52.254;12.988;2023-11-21T08:41:56;15.75;;;9.07;;
5823;SDS011;2938;52.254;12.988;2023-11-21T08:44:22;13.38;;;8.07;;
5823;SDS011;2938;52.254;12.988;2023-11-21T08:46:48;16.00;;;8.32;;
5823;SDS011;2938;52.254;12.988;2023-11-21T08:49:14;9.32;;;6.40;;
5823;SDS011;2938;52.254;12.988;2023-11-21T08:51:40;13.00;;;7.78;;
5823;SDS011;2938;52.254;12.988;2023-11-21T08:54:05;10.98;;;6.38;;
5823;SDS011;2938;52.254;12.988;2023-11-21T08:56:33;12.63;;;7.82;;
5823;SDS011;2938;52.254;12.988;2023-11-21T08:58:59;9.98;;;7.30;;
5823;SDS011;2938;52.254;12.988;2023-11-21T09:01:27;14.35;;;8.43;;
5823;SDS011;2938;52.254;12.988;2023-11-21T09:03:52;11.50;;;6.53;;
5823;SDS011;2938;52.254;12.988;2023-11-21T09:06:18;11.45;;;7.05;;
5823;SDS011;2938;52.254;12.988;2023-11-21T09:08:44;10.65;;;6.80;;
5823;SDS011;2938;52.254;12.988;2023-11-21T09:11:09;9.95;;;6.28;;
5823;SDS011;2938;52.254;12.988;2023-11-21T09:13:34;9.73;;;7.28;;
5823;SDS011;2938;52.254;12.988;2023-11-21T09:16:00;10.40;;;6.35;;
5823;SDS011;2938;52.254;12.988;2023-11-21T09:18:25;13.73;;;7.03;;
5823;SDS011;2938;52.254;12.988;2023-11-21T09:20:51;9.20;;;5.22;;
5823;SDS011;2938;52.254;12.988;2023-11-21T09:23:16;10.50;;;6.72;;
5823;SDS011;2938;52.254;12.988;2023-11-21T09:25:44;8.20;;;6.32;;
5823;SDS011;2938;52.254;12.988;2023-11-21T09:28:11;10.63;;;7.53;;
5823;SDS011;2938;52.254;12.988;2023-11-21T09:30:37;9.65;;;7.75;;
5823;SDS011;2938;52.254;12.988;2023-11-21T09:33:03;11.48;;;7.10;;
5823;SDS011;2938;52.254;12.988;2023-11-21T09:35:32;9.77;;;6.22;;
5823;SDS011;2938;52.254;12.988;2023-11-21T09:37:58;9.07;;;5.43;;
5823;SDS011;2938;52.254;12.988;2023-11-21T09:40:23;8.15;;;5.00;;
5823;SDS011;2938;52.254;12.988;2023-11-21T09:42:50;8.65;;;5.53;;
5823;SDS011;2938;52.254;12.988;2023-11-21T09:45:31;10.65;;;5.95;;
5823;SDS011;2938;52.254;12.988;2023-11-21T09:47:59;7.13;;;4.80;;
5823;SDS011;2938;52.254;12.988;2023-11-21T09:50:24;8.98;;;5.28;;
5823;SDS011;2938;52.254;12.988;2023-11-21T09:55:22;8.93;;;5.25;;
5823;SDS011;2938;52.254;12.988;2023-11-21T09:57:51;9.60;;;6.00;;
5823;SDS011;2938;52.254;12.988;2023-11-21T10:00:17;7.78;;;5.25;;
5823;SDS011;2938;52.254;12.988;2023-11-21T10:02:45;7.78;;;5.53;;
5823;SDS011;2938;52.254;12.988;2023-11-21T10:05:11;9.48;;;4.97;;
5823;SDS011;2938;52.254;12.988;2023-11-21T10:07:37;5.55;;;4.60;;
5823;SDS011;2938;52.254;12.988;2023-11-21T10:10:05;9.63;;;5.00;;
5823;SDS011;2938;52.254;12.988;2023-11-21T10:12:31;6.88;;;5.05;;
5823;SDS011;2938;52.254;12.988;2023-11-21T10:14:57;8.27;;;5.32;;
5823;SDS011;2938;52.254;12.988;2023-11-21T10:17:23;7.70;;;4.93;;
5823;SDS011;2938;52.254;12.988;2023-11-21T10:19:51;5.00;;;3.97;;
5823;SDS011;2938;52.254;12.988;2023-11-21T10:22:18;8.02;;;4.45;;
5823;SDS011;2938;52.254;12.988;2023-11-21T10:24:45;12.82;;;6.43;;
5823;SDS011;2938;52.254;12.988;2023-11-21T10:27:10;7.93;;;4.32;;
5823;SDS011;2938;52.254;12.988;2023-11-21T10:29:35;5.82;;;3.88;;
5823;SDS011;2938;52.254;12.988;2023-11-21T10:32:04;6.80;;;3.92;;
5823;SDS011;2938;52.254;12.988;2023-11-21T10:34:30;6.50;;;4.93;;
5823;SDS011;2938;52.254;12.988;2023-11-21T10:36:56;12.15;;;5.25;;
5823;SDS011;2938;52.254;12.988;2023-11-21T10:39:23;7.82;;;5.45;;
5823;SDS011;2938;52.254;12.988;2023-11-21T10:41:52;6.38;;;4.85;;
5823;SDS011;2938;52.254;12.988;2023-11-21T10:44:18;10.10;;;4.72;;
5823;SDS011;2938;52.254;12.988;2023-11-21T10:46:48;62.33;;;27.60;;
5823;SDS011;2938;52.254;12.988;2023-11-21T10:49:16;129.75;;;64.15;;
5823;SDS011;2938;52.254;12.988;2023-11-21T10:51:43;37.10;;;21.23;;
5823;SDS011;2938;52.254;12.988;2023-11-21T10:54:09;10.80;;;8.32;;
5823;SDS011;2938;52.254;12.988;2023-11-21T10:56:34;9.27;;;5.40;;
5823;SDS011;2938;52.254;12.988;2023-11-21T10:59:05;15.13;;;6.73;;
5823;SDS011;2938;52.254;12.988;2023-11-21T11:01:33;6.47;;;5.25;;
5823;SDS011;2938;52.254;12.988;2023-11-21T11:03:58;8.20;;;5.63;;
5823;SDS011;2938;52.254;12.988;2023-11-21T11:06:23;7.60;;;5.80;;
5823;SDS011;2938;52.254;12.988;2023-11-21T11:08:51;8.55;;;5.22;;
5823;SDS011;2938;52.254;12.988;2023-11-21T11:11:16;8.00;;;5.15;;
5823;SDS011;2938;52.254;12.988;2023-11-21T11:13:43;4.35;;;3.38;;
5823;SDS011;2938;52.254;12.988;2023-11-21T11:16:10;10.88;;;5.10;;
5823;SDS011;2938;52.254;12.988;2023-11-21T11:18:37;7.00;;;5.28;;
5823;SDS011;2938;52.254;12.988;2023-11-21T11:26:37;7.40;;;4.60;;
5823;SDS011;2938;52.254;12.988;2023-11-21T11:29:15;7.40;;;4.18;;
5823;SDS011;2938;52.254;12.988;2023-11-21T11:32:03;6.70;;;4.95;;
5823;SDS011;2938;52.254;12.988;2023-11-21T11:34:35;8.82;;;5.68;;
5823;SDS011;2938;52.254;12.988;2023-11-21T11:37:02;10.20;;;4.93;;
5823;SDS011;2938;52.254;12.988;2023-11-21T11:39:37;10.63;;;5.75;;
5823;SDS011;2938;52.254;12.988;2023-11-21T11:42:05;7.88;;;5.78;;
5823;SDS011;2938;52.254;12.988;2023-11-21T11:52:33;8.77;;;5.53;;
5823;SDS011;2938;52.254;12.988;2023-11-21T11:54:59;6.45;;;4.93;;
5823;SDS011;2938;52.254;12.988;2023-11-21T11:57:25;7.38;;;5.97;;
5823;SDS011;2938;52.254;12.988;2023-11-21T12:00:16;8.77;;;6.32;;
5823;SDS011;2938;52.254;12.988;2023-11-21T12:02:50;10.00;;;5.00;;
5823;SDS011;2938;52.254;12.988;2023-11-21T12:05:17;8.50;;;5.90;;
5823;SDS011;2938;52.254;12.988;2023-11-21T12:07:44;8.77;;;6.20;;
5823;SDS011;2938;52.254;12.988;2023-11-21T12:10:29;7.13;;;5.43;;
5823;SDS011;2938;52.254;12.988;2023-11-21T12:12:56;7.28;;;5.45;;
5823;SDS011;2938;52.254;12.988;2023-11-21T12:15:28;10.35;;;6.60;;
5823;SDS011;2938;52.254;12.988;2023-11-21T12:17:55;6.40;;;4.82;;
5823;SDS011;2938;52.254;12.988;2023-11-21T12:20:24;7.15;;;5.25;;
5823;SDS011;2938;52.254;12.988;2023-11-21T12:22:50;9.13;;;5.63;;
5823;SDS011;2938;52.254;12.988;2023-11-21T12:25:16;9.95;;;5.95;;
5823;SDS011;2938;52.254;12.988;2023-11-21T12:27:44;9.85;;;6.38;;
5823;SDS011;2938;52.254;12.988;2023-11-21T12:30:16;9.05;;;6.32;;
5823;SDS011;2938;52.254;12.988;2023-11-21T12:32:44;7.07;;;4.93;;
5823;SDS011;2938;52.254;12.988;2023-11-21T12:35:11;8.32;;;4.65;;
5823;SDS011;2938;52.254;12.988;2023-11-21T12:37:40;8.95;;;5.70;;
5823;SDS011;2938;52.254;12.988;2023-11-21T12:40:08;7.60;;;5.03;;
5823;SDS011;2938;52.254;12.988;2023-11-21T12:42:36;8.27;;;5.18;;
5823;SDS011;2938;52.254;12.988;2023-11-21T12:45:18;9.73;;;5.43;;
5823;SDS011;2938;52.254;12.988;2023-11-21T12:47:46;7.80;;;4.97;;
5823;SDS011;2938;52.254;12.988;2023-11-21T12:50:15;5.75;;;4.88;;
5823;SDS011;2938;52.254;12.988;2023-11-21T12:52:46;9.10;;;4.30;;
5823;SDS011;2938;52.254;12.988;2023-11-21T12:55:13;6.10;;;5.18;;
5823;SDS011;2938;52.254;12.988;2023-11-21T12:57:44;8.20;;;4.72;;
5823;SDS011;2938;52.254;12.988;2023-11-21T13:00:10;10.18;;;5.03;;
5823;SDS011;2938;52.254;12.988;2023-11-21T13:02:40;7.15;;;5.78;;
5823;SDS011;2938;52.254;12.988;2023-11-21T13:05:07;9.35;;;5.53;;
5823;SDS011;2938;52.254;12.988;2023-11-21T13:07:43;6.43;;;4.55;;
5823;SDS011;2938;52.254;12.988;2023-11-21T13:10:12;8.40;;;5.38;;
5823;SDS011;2938;52.254;12.988;2023-11-21T13:12:43;7.85;;;5.43;;
5823;SDS011;2938;52.254;12.988;2023-11-21T13:15:16;9.35;;;4.85;;
5823;SDS011;2938;52.254;12.988;2023-11-21T13:17:44;7.68;;;5.25;;
5823;SDS011;2938;52.254;12.988;2023-11-21T13:20:10;8.00;;;5.72;;
5823;SDS011;2938;52.254;12.988;2023-11-21T13:22:46;6.90;;;4.77;;
5823;SDS011;2938;52.254;12.988;2023-11-21T13:27:39;10.75;;;6.35;;
5823;SDS011;2938;52.254;12.988;2023-11-21T13:30:14;13.35;;;7.20;;
5823;SDS011;2938;52.254;12.988;2023-11-21T13:32:40;12.57;;;7.88;;
5823;SDS011;2938;52.254;12.988;2023-11-21T13:35:11;8.68;;;7.03;;
5823;SDS011;2938;52.254;12.988;2023-11-21T13:37:45;13.60;;;8.27;;
5823;SDS011;2938;52.254;12.988;2023-11-21T13:40:14;12.27;;;7.00;;
5823;SDS011;2938;52.254;12.988;2023-11-21T13:42:44;12.32;;;7.03;;
5823;SDS011;2938;52.254;12.988;2023-11-21T13:45:09;12.65;;;6.88;;
5823;SDS011;2938;52.254;12.988;2023-11-21T13:47:35;13.98;;;7.78;;
5823;SDS011;2938;52.254;12.988;2023-11-21T13:50:02;13.48;;;7.57;;
5823;SDS011;2938;52.254;12.988;2023-11-21T13:52:28;9.23;;;5.72;;
5823;SDS011;2938;52.254;12.988;2023-11-21T13:54:56;10.73;;;6.85;;
5823;SDS011;2938;52.254;12.988;2023-11-21T13:57:21;8.50;;;5.07;;
5823;SDS011;2938;52.254;12.988;2023-11-21T13:59:47;15.05;;;6.68;;
5823;SDS011;2938;52.254;12.988;2023-11-21T14:02:12;12.85;;;6.65;;
5823;SDS011;2938;52.254;12.988;2023-11-21T14:04:43;15.50;;;7.60;;
5823;SDS011;2938;52.254;12.988;2023-11-21T14:07:19;12.85;;;6.72;;
5823;SDS011;2938;52.254;12.988;2023-11-21T14:10:03;12.70;;;7.63;;
5823;SDS011;2938;52.254;12.988;2023-11-21T14:15:01;13.27;;;6.20;;
5823;SDS011;2938;52.254;12.988;2023-11-21T14:17:29;11.32;;;7.70;;
5823;SDS011;2938;52.254;12.988;2023-11-21T14:19:55;11.07;;;7.00;;
5823;SDS011;2938;52.254;12.988;2023-11-21T14:22:21;11.25;;;6.78;;
5823;SDS011;2938;52.254;12.988;2023-11-21T14:24:46;15.15;;;8.05;;
5823;SDS011;2938;52.254;12.988;2023-11-21T14:27:12;13.73;;;7.97;;
5823;SDS011;2938;52.254;12.988;2023-11-21T14:29:38;10.98;;;7.22;;
5823;SDS011;2938;52.254;12.988;2023-11-21T14:32:07;15.85;;;8.38;;
5823;SDS011;2938;52.254;12.988;2023-11-21T14:34:33;10.48;;;6.20;;
5823;SDS011;2938;52.254;12.988;2023-11-21T14:36:58;16.33;;;8.07;;
5823;SDS011;2938;52.254;12.988;2023-11-21T14:39:23;9.27;;;7.03;;
5823;SDS011;2938;52.254;12.988;2023-11-21T14:41:51;11.90;;;8.52;;
5823;SDS011;2938;52.254;12.988;2023-11-21T14:44:17;14.45;;;7.95;;
5823;SDS011;2938;52.254;12.988;2023-11-21T14:46:43;14.30;;;8.60;;
5823;SDS011;2938;52.254;12.988;2023-11-21T14:49:14;15.50;;;8.25;;
5823;SDS011;2938;52.254;12.988;2023-11-21T14:51:44;12.90;;;8.60;;
5823;SDS011;2938;52.254;12.988;2023-11-21T14:54:28;12.40;;;8.40;;
5823;SDS011;2938;52.254;12.988;2023-11-21T14:57:10;11.63;;;6.95;;
5823;SDS011;2938;52.254;12.988;2023-11-21T14:59:47;11.15;;;9.07;;
5823;SDS011;2938;52.254;12.988;2023-11-21T15:02:22;13.20;;;8.38;;
5823;SDS011;2938;52.254;12.988;2023-11-21T15:05:06;11.27;;;7.70;;